sensor_id;sensor_type;location;lat;lon;timestamp;temperature;humidity
52555;DHT22;38455;52.710;6.502;2023-05-07T00:00:03;14.80;99.90
52555;DHT22;38455;52.710;6.502;2023-05-07T00:02:33;14.80;99.90
52555;DHT22;38455;52.710;6.502;2023-05-07T00:04:58;14.80;99.90
52555;DHT22;38455;52.710;6.502;2023-05-07T00:07:24;14.70;99.90
52555;DHT22;38455;52.710;6.502;2023-05-07T00:09:50;14.70;99.90
52555;DHT22;38455;52.710;6.502;2023-05-07T00:12:15;14.70;99.90
52555;DHT22;38455;52.710;6.502;2023-05-07T00:14:41;14.70;99.90
52555;DHT22;38455;52.710;6.502;2023-05-07T00:17:07;14.70;99.90
52555;DHT22;38455;52.710;6.502;2023-05-07T00:19:33;14.60;99.90
52555;DHT22;38455;52.710;6.502;2023-05-07T00:21:58;14.70;99.90
52555;DHT22;38455;52.710;6.502;2023-05-07T00:24:24;14.60;99.90
52555;DHT22;38455;52.710;6.502;2023-05-07T00:26:50;14.60;99.90
52555;DHT22;38455;52.710;6.502;2023-05-07T00:29:15;14.60;99.90
52555;DHT22;38455;52.710;6.502;2023-05-07T00:31:41;14.60;99.90
52555;DHT22;38455;52.710;6.502;2023-05-07T00:34:07;14.60;99.90
52555;DHT22;38455;52.710;6.502;2023-05-07T00:36:32;14.60;99.90
52555;DHT22;38455;52.710;6.502;2023-05-07T00:39:00;14.60;99.90
52555;DHT22;38455;52.710;6.502;2023-05-07T00:41:27;14.60;99.90
52555;DHT22;38455;52.710;6.502;2023-05-07T00:43:53;14.50;99.90
52555;DHT22;38455;52.710;6.502;2023-05-07T00:46:20;14.50;99.90
52555;DHT22;38455;52.710;6.502;2023-05-07T00:48:47;14.50;99.90
52555;DHT22;38455;52.710;6.502;2023-05-07T00:51:13;14.50;99.90
52555;DHT22;38455;52.710;6.502;2023-05-07T00:53:39;14.40;99.90
52555;DHT22;38455;52.710;6.502;2023-05-07T00:56:06;14.40;99.90
52555;DHT22;38455;52.710;6.502;2023-05-07T00:58:32;14.40;99.90
52555;DHT22;38455;52.710;6.502;2023-05-07T01:01:00;14.30;99.90
52555;DHT22;38455;52.710;6.502;2023-05-07T01:03:25;14.30;99.90
52555;DHT22;38455;52.710;6.502;2023-05-07T01:05:52;14.30;99.90
52555;DHT22;38455;52.710;6.502;2023-05-07T01:08:19;14.30;99.90
52555;DHT22;38455;52.710;6.502;2023-05-07T01:10:46;14.30;99.90
52555;DHT22;38455;52.710;6.502;2023-05-07T01:13:13;14.30;99.90
52555;DHT22;38455;52.710;6.502;2023-05-07T01:15:39;14.30;99.90
52555;DHT22;38455;52.710;6.502;2023-05-07T01:18:06;14.20;99.90
52555;DHT22;38455;52.710;6.502;2023-05-07T01:20:32;14.20;99.90
52555;DHT22;38455;52.710;6.502;2023-05-07T01:22:59;14.20;99.90
52555;DHT22;38455;52.710;6.502;2023-05-07T01:25:25;14.10;99.90
52555;DHT22;38455;52.710;6.502;2023-05-07T01:27:51;14.10;99.90
52555;DHT22;38455;52.710;6.502;2023-05-07T01:30:18;14.00;99.90
52555;DHT22;38455;52.710;6.502;2023-05-07T01:32:57;14.00;99.90
52555;DHT22;38455;52.710;6.502;2023-05-07T01:35:30;14.00;99.90
52555;DHT22;38455;52.710;6.502;2023-05-07T01:37:57;13.90;99.90
52555;DHT22;38455;52.710;6.502;2023-05-07T01:40:24;13.90;99.90
52555;DHT22;38455;52.710;6.502;2023-05-07T01:42:51;13.90;99.90
52555;DHT22;38455;52.710;6.502;2023-05-07T01:45:17;13.80;99.90
52555;DHT22;38455;52.710;6.502;2023-05-07T01:47:43;13.70;99.90
52555;DHT22;38455;52.710;6.502;2023-05-07T01:50:09;13.70;99.90
52555;DHT22;38455;52.710;6.502;2023-05-07T01:52:39;13.70;99.90
52555;DHT22;38455;52.710;6.502;2023-05-07T01:55:06;13.60;99.90
52555;DHT22;38455;52.710;6.502;2023-05-07T01:57:32;13.50;99.90
52555;DHT22;38455;52.710;6.502;2023-05-07T01:59:57;13.50;99.90
52555;DHT22;38455;52.710;6.502;2023-05-07T02:02:23;13.50;99.90
52555;DHT22;38455;52.710;6.502;2023-05-07T02:04:49;13.40;99.90
52555;DHT22;38455;52.710;6.502;2023-05-07T02:07:15;13.40;99.90
52555;DHT22;38455;52.710;6.502;2023-05-07T02:09:40;13.30;99.90
52555;DHT22;38455;52.710;6.502;2023-05-07T02:12:06;13.20;99.90
52555;DHT22;38455;52.710;6.502;2023-05-07T02:14:32;13.20;99.90
52555;DHT22;38455;52.710;6.502;2023-05-07T02:16:57;13.10;99.90
52555;DHT22;38455;52.710;6.502;2023-05-07T02:19:23;13.10;99.90
52555;DHT22;38455;52.710;6.502;2023-05-07T02:21:49;13.10;99.90
52555;DHT22;38455;52.710;6.502;2023-05-07T02:24:15;13.10;99.90
52555;DHT22;38455;52.710;6.502;2023-05-07T02:26:41;13.00;99.90
52555;DHT22;38455;52.710;6.502;2023-05-07T02:29:06;12.90;99.90
52555;DHT22;38455;52.710;6.502;2023-05-07T02:31:32;12.90;99.90
52555;DHT22;38455;52.710;6.502;2023-05-07T02:34:00;12.80;99.90
52555;DHT22;38455;52.710;6.502;2023-05-07T02:36:25;12.80;99.90
52555;DHT22;38455;52.710;6.502;2023-05-07T02:38:52;12.80;99.90
52555;DHT22;38455;52.710;6.502;2023-05-07T02:41:17;12.70;99.90
52555;DHT22;38455;52.710;6.502;2023-05-07T02:43:43;12.70;99.90
52555;DHT22;38455;52.710;6.502;2023-05-07T02:46:09;12.70;99.90
52555;DHT22;38455;52.710;6.502;2023-05-07T02:48:35;12.70;99.90
52555;DHT22;38455;52.710;6.502;2023-05-07T02:51:01;12.70;99.90
52555;DHT22;38455;52.710;6.502;2023-05-07T02:53:27;12.60;99.90
52555;DHT22;38455;52.710;6.502;2023-05-07T02:55:56;12.60;99.90
52555;DHT22;38455;52.710;6.502;2023-05-07T02:58:22;12.60;99.90
52555;DHT22;38455;52.710;6.502;2023-05-07T03:00:48;12.50;99.90
52555;DHT22;38455;52.710;6.502;2023-05-07T03:03:14;12.50;99.90
52555;DHT22;38455;52.710;6.502;2023-05-07T03:05:40;12.50;99.90
52555;DHT22;38455;52.710;6.502;2023-05-07T03:08:05;12.40;99.90
52555;DHT22;38455;52.710;6.502;2023-05-07T03:10:31;12.50;99.90
52555;DHT22;38455;52.710;6.502;2023-05-07T03:12:57;12.40;99.90
52555;DHT22;38455;52.710;6.502;2023-05-07T03:15:22;12.40;99.90
52555;DHT22;38455;52.710;6.502;2023-05-07T03:17:48;12.40;99.90
52555;DHT22;38455;52.710;6.502;2023-05-07T03:20:14;12.40;99.90
52555;DHT22;38455;52.710;6.502;2023-05-07T03:22:40;12.40;99.90
52555;DHT22;38455;52.710;6.502;2023-05-07T03:25:06;12.40;99.90
52555;DHT22;38455;52.710;6.502;2023-05-07T03:27:32;12.40;99.90
52555;DHT22;38455;52.710;6.502;2023-05-07T03:29:58;12.30;99.90
52555;DHT22;38455;52.710;6.502;2023-05-07T03:32:23;12.30;99.90
52555;DHT22;38455;52.710;6.502;2023-05-07T03:34:49;12.30;99.90
52555;DHT22;38455;52.710;6.502;2023-05-07T03:37:15;12.30;99.90
52555;DHT22;38455;52.710;6.502;2023-05-07T03:39:41;12.30;99.90
52555;DHT22;38455;52.710;6.502;2023-05-07T03:42:06;12.30;99.90
52555;DHT22;38455;52.710;6.502;2023-05-07T03:44:32;12.30;99.90
52555;DHT22;38455;52.710;6.502;2023-05-07T03:46:58;12.30;99.90
52555;DHT22;38455;52.710;6.502;2023-05-07T03:49:23;12.30;99.90
52555;DHT22;38455;52.710;6.502;2023-05-07T03:51:49;12.30;99.90
52555;DHT22;38455;52.710;6.502;2023-05-07T03:54:15;12.30;99.90
52555;DHT22;38455;52.710;6.502;2023-05-07T03:56:40;12.20;99.90
52555;DHT22;38455;52.710;6.502;2023-05-07T03:59:06;12.20;99.90
52555;DHT22;38455;52.710;6.502;2023-05-07T04:01:32;12.20;99.90
52555;DHT22;38455;52.710;6.502;2023-05-07T04:03:57;12.20;99.90
52555;DHT22;38455;52.710;6.502;2023-05-07T04:06:23;12.20;99.90
52555;DHT22;38455;52.710;6.502;2023-05-07T04:08:49;12.20;99.90
52555;DHT22;38455;52.710;6.502;2023-05-07T04:11:15;12.20;99.90
52555;DHT22;38455;52.710;6.502;2023-05-07T04:13:41;12.20;99.90
52555;DHT22;38455;52.710;6.502;2023-05-07T04:16:06;12.10;99.90
52555;DHT22;38455;52.710;6.502;2023-05-07T04:18:32;12.10;99.90
52555;DHT22;38455;52.710;6.502;2023-05-07T04:20:57;12.10;99.90
52555;DHT22;38455;52.710;6.502;2023-05-07T04:23:23;12.00;99.90
52555;DHT22;38455;52.710;6.502;2023-05-07T04:25:49;12.10;99.90
52555;DHT22;38455;52.710;6.502;2023-05-07T04:28:15;12.00;99.90
52555;DHT22;38455;52.710;6.502;2023-05-07T04:30:41;12.10;99.90
52555;DHT22;38455;52.710;6.502;2023-05-07T04:33:07;12.10;99.90
52555;DHT22;38455;52.710;6.502;2023-05-07T04:35:33;12.10;99.90
52555;DHT22;38455;52.710;6.502;2023-05-07T04:37:58;12.10;99.90
52555;DHT22;38455;52.710;6.502;2023-05-07T04:40:24;12.10;99.90
52555;DHT22;38455;52.710;6.502;2023-05-07T04:42:50;12.20;99.90
52555;DHT22;38455;52.710;6.502;2023-05-07T04:45:16;12.20;99.90
52555;DHT22;38455;52.710;6.502;2023-05-07T04:47:42;12.20;99.90
52555;DHT22;38455;52.710;6.502;2023-05-07T04:50:08;12.20;99.90
52555;DHT22;38455;52.710;6.502;2023-05-07T04:52:34;12.20;99.90
52555;DHT22;38455;52.710;6.502;2023-05-07T04:55:00;12.20;99.90
52555;DHT22;38455;52.710;6.502;2023-05-07T04:57:26;12.10;99.90
52555;DHT22;38455;52.710;6.502;2023-05-07T04:59:53;12.10;99.90
52555;DHT22;38455;52.710;6.502;2023-05-07T05:02:18;12.10;99.90
52555;DHT22;38455;52.710;6.502;2023-05-07T05:04:44;12.20;99.90
52555;DHT22;38455;52.710;6.502;2023-05-07T05:07:10;12.10;99.90
52555;DHT22;38455;52.710;6.502;2023-05-07T05:09:35;12.10;99.90
52555;DHT22;38455;52.710;6.502;2023-05-07T05:12:01;12.20;99.90
52555;DHT22;38455;52.710;6.502;2023-05-07T05:14:26;12.20;99.90
52555;DHT22;38455;52.710;6.502;2023-05-07T05:16:52;12.20;99.90
52555;DHT22;38455;52.710;6.502;2023-05-07T05:19:18;12.20;99.90
52555;DHT22;38455;52.710;6.502;2023-05-07T05:21:43;12.20;99.90
52555;DHT22;38455;52.710;6.502;2023-05-07T05:24:09;12.20;99.90
52555;DHT22;38455;52.710;6.502;2023-05-07T05:26:35;12.20;99.90
52555;DHT22;38455;52.710;6.502;2023-05-07T05:29:00;12.20;99.90
52555;DHT22;38455;52.710;6.502;2023-05-07T05:31:26;12.30;99.90
52555;DHT22;38455;52.710;6.502;2023-05-07T05:33:52;12.20;99.90
52555;DHT22;38455;52.710;6.502;2023-05-07T05:36:17;12.30;99.90
52555;DHT22;38455;52.710;6.502;2023-05-07T05:38:43;12.30;99.90
52555;DHT22;38455;52.710;6.502;2023-05-07T05:41:10;12.30;99.90
52555;DHT22;38455;52.710;6.502;2023-05-07T05:43:36;12.30;99.90
52555;DHT22;38455;52.710;6.502;2023-05-07T05:46:02;12.40;99.90
52555;DHT22;38455;52.710;6.502;2023-05-07T05:48:29;12.40;99.90
52555;DHT22;38455;52.710;6.502;2023-05-07T05:50:54;12.40;99.90
52555;DHT22;38455;52.710;6.502;2023-05-07T05:53:20;12.40;99.90
52555;DHT22;38455;52.710;6.502;2023-05-07T05:55:46;12.40;99.90
52555;DHT22;38455;52.710;6.502;2023-05-07T05:58:12;12.40;99.90
52555;DHT22;38455;52.710;6.502;2023-05-07T06:00:37;12.40;99.90
52555;DHT22;38455;52.710;6.502;2023-05-07T06:03:03;12.50;99.90
52555;DHT22;38455;52.710;6.502;2023-05-07T06:05:29;12.50;99.90
52555;DHT22;38455;52.710;6.502;2023-05-07T06:07:54;12.40;99.90
52555;DHT22;38455;52.710;6.502;2023-05-07T06:10:20;12.40;99.90
52555;DHT22;38455;52.710;6.502;2023-05-07T06:12:46;12.50;99.90
52555;DHT22;38455;52.710;6.502;2023-05-07T06:15:11;12.50;99.90
52555;DHT22;38455;52.710;6.502;2023-05-07T06:17:37;12.50;99.90
52555;DHT22;38455;52.710;6.502;2023-05-07T06:20:03;12.60;99.90
52555;DHT22;38455;52.710;6.502;2023-05-07T06:22:29;12.60;99.90
52555;DHT22;38455;52.710;6.502;2023-05-07T06:24:55;12.60;99.90
52555;DHT22;38455;52.710;6.502;2023-05-07T06:27:20;12.70;99.90
52555;DHT22;38455;52.710;6.502;2023-05-07T06:29:48;12.80;99.90
52555;DHT22;38455;52.710;6.502;2023-05-07T06:32:14;12.80;99.90
52555;DHT22;38455;52.710;6.502;2023-05-07T06:34:40;12.80;99.90
52555;DHT22;38455;52.710;6.502;2023-05-07T06:37:06;12.80;99.90
52555;DHT22;38455;52.710;6.502;2023-05-07T06:39:32;12.90;99.90
52555;DHT22;38455;52.710;6.502;2023-05-07T06:41:59;12.90;99.90
52555;DHT22;38455;52.710;6.502;2023-05-07T06:44:25;13.00;99.90
52555;DHT22;38455;52.710;6.502;2023-05-07T06:46:50;12.90;99.90
52555;DHT22;38455;52.710;6.502;2023-05-07T06:49:16;12.90;99.90
52555;DHT22;38455;52.710;6.502;2023-05-07T06:51:42;13.00;99.90
52555;DHT22;38455;52.710;6.502;2023-05-07T06:54:07;13.00;99.90
52555;DHT22;38455;52.710;6.502;2023-05-07T06:56:33;13.20;99.90
52555;DHT22;38455;52.710;6.502;2023-05-07T06:59:00;13.10;99.90
52555;DHT22;38455;52.710;6.502;2023-05-07T07:01:26;13.20;99.90
52555;DHT22;38455;52.710;6.502;2023-05-07T07:03:52;13.50;99.90
52555;DHT22;38455;52.710;6.502;2023-05-07T07:06:17;13.60;99.90
52555;DHT22;38455;52.710;6.502;2023-05-07T07:08:43;13.90;99.90
52555;DHT22;38455;52.710;6.502;2023-05-07T07:11:10;14.40;99.90
52555;DHT22;38455;52.710;6.502;2023-05-07T07:13:36;14.60;99.90
52555;DHT22;38455;52.710;6.502;2023-05-07T07:16:01;14.60;99.90
52555;DHT22;38455;52.710;6.502;2023-05-07T07:18:28;14.60;99.90
52555;DHT22;38455;52.710;6.502;2023-05-07T07:20:54;14.70;99.90
52555;DHT22;38455;52.710;6.502;2023-05-07T07:23:19;14.80;99.90
52555;DHT22;38455;52.710;6.502;2023-05-07T07:25:45;14.90;99.90
52555;DHT22;38455;52.710;6.502;2023-05-07T07:28:11;15.10;99.90
52555;DHT22;38455;52.710;6.502;2023-05-07T07:30:37;15.30;99.90
52555;DHT22;38455;52.710;6.502;2023-05-07T07:33:03;15.20;99.90
52555;DHT22;38455;52.710;6.502;2023-05-07T07:35:31;15.60;99.90
52555;DHT22;38455;52.710;6.502;2023-05-07T07:37:58;15.70;99.90
52555;DHT22;38455;52.710;6.502;2023-05-07T07:40:24;16.00;99.90
52555;DHT22;38455;52.710;6.502;2023-05-07T07:42:50;16.30;99.90
52555;DHT22;38455;52.710;6.502;2023-05-07T07:45:16;16.30;99.90
52555;DHT22;38455;52.710;6.502;2023-05-07T07:47:42;16.20;99.90
52555;DHT22;38455;52.710;6.502;2023-05-07T07:50:08;16.00;99.90
52555;DHT22;38455;52.710;6.502;2023-05-07T07:52:34;16.00;99.90
52555;DHT22;38455;52.710;6.502;2023-05-07T07:55:00;15.90;99.90
52555;DHT22;38455;52.710;6.502;2023-05-07T07:57:26;16.10;99.90
52555;DHT22;38455;52.710;6.502;2023-05-07T07:59:52;16.00;99.90
52555;DHT22;38455;52.710;6.502;2023-05-07T08:02:17;16.10;99.90
52555;DHT22;38455;52.710;6.502;2023-05-07T08:04:43;16.20;99.90
52555;DHT22;38455;52.710;6.502;2023-05-07T08:07:12;16.40;99.90
52555;DHT22;38455;52.710;6.502;2023-05-07T08:09:39;16.50;99.90
52555;DHT22;38455;52.710;6.502;2023-05-07T08:12:07;16.50;99.90
52555;DHT22;38455;52.710;6.502;2023-05-07T08:14:33;16.70;99.90
52555;DHT22;38455;52.710;6.502;2023-05-07T08:16:59;16.90;99.90
52555;DHT22;38455;52.710;6.502;2023-05-07T08:19:24;17.20;99.90
52555;DHT22;38455;52.710;6.502;2023-05-07T08:21:50;17.40;99.90
52555;DHT22;38455;52.710;6.502;2023-05-07T08:24:17;17.90;99.90
52555;DHT22;38455;52.710;6.502;2023-05-07T08:26:43;19.10;99.90
52555;DHT22;38455;52.710;6.502;2023-05-07T08:29:09;19.40;99.90
52555;DHT22;38455;52.710;6.502;2023-05-07T08:31:35;20.00;99.90
52555;DHT22;38455;52.710;6.502;2023-05-07T08:34:01;19.70;99.90
52555;DHT22;38455;52.710;6.502;2023-05-07T08:36:26;20.70;99.90
52555;DHT22;38455;52.710;6.502;2023-05-07T08:38:53;20.80;99.90
52555;DHT22;38455;52.710;6.502;2023-05-07T08:41:18;20.70;99.90
52555;DHT22;38455;52.710;6.502;2023-05-07T08:43:49;20.70;99.90
52555;DHT22;38455;52.710;6.502;2023-05-07T08:46:20;20.60;99.90
52555;DHT22;38455;52.710;6.502;2023-05-07T08:48:49;21.40;99.90
52555;DHT22;38455;52.710;6.502;2023-05-07T08:51:19;21.80;99.90
52555;DHT22;38455;52.710;6.502;2023-05-07T08:53:47;21.70;99.90
52555;DHT22;38455;52.710;6.502;2023-05-07T08:56:17;22.10;99.90
52555;DHT22;38455;52.710;6.502;2023-05-07T08:58:43;22.70;99.90
52555;DHT22;38455;52.710;6.502;2023-05-07T09:01:12;22.60;99.70
52555;DHT22;38455;52.710;6.502;2023-05-07T09:03:39;22.40;99.90
52555;DHT22;38455;52.710;6.502;2023-05-07T09:06:05;22.60;99.90
52555;DHT22;38455;52.710;6.502;2023-05-07T09:08:33;23.50;99.90
52555;DHT22;38455;52.710;6.502;2023-05-07T09:10:59;23.80;97.80
52555;DHT22;38455;52.710;6.502;2023-05-07T09:13:26;23.90;97.90
52555;DHT22;38455;52.710;6.502;2023-05-07T09:15:52;24.00;97.30
52555;DHT22;38455;52.710;6.502;2023-05-07T09:18:18;24.00;97.80
52555;DHT22;38455;52.710;6.502;2023-05-07T09:20:44;23.70;96.20
52555;DHT22;38455;52.710;6.502;2023-05-07T09:23:09;23.60;97.10
52555;DHT22;38455;52.710;6.502;2023-05-07T09:25:36;24.00;96.80
52555;DHT22;38455;52.710;6.502;2023-05-07T09:28:03;24.80;95.50
52555;DHT22;38455;52.710;6.502;2023-05-07T09:30:30;24.70;94.50
52555;DHT22;38455;52.710;6.502;2023-05-07T09:33:00;24.90;94.30
52555;DHT22;38455;52.710;6.502;2023-05-07T09:35:26;24.80;93.40
52555;DHT22;38455;52.710;6.502;2023-05-07T09:37:59;24.10;93.80
52555;DHT22;38455;52.710;6.502;2023-05-07T09:40:29;23.90;93.90
52555;DHT22;38455;52.710;6.502;2023-05-07T09:42:55;23.70;93.00
52555;DHT22;38455;52.710;6.502;2023-05-07T09:45:25;23.70;93.90
52555;DHT22;38455;52.710;6.502;2023-05-07T09:47:55;23.50;94.20
52555;DHT22;38455;52.710;6.502;2023-05-07T09:50:26;24.00;93.90
52555;DHT22;38455;52.710;6.502;2023-05-07T09:52:55;23.90;93.70
52555;DHT22;38455;52.710;6.502;2023-05-07T09:55:24;24.60;93.10
52555;DHT22;38455;52.710;6.502;2023-05-07T09:57:52;24.40;93.10
52555;DHT22;38455;52.710;6.502;2023-05-07T10:00:22;24.70;92.60
52555;DHT22;38455;52.710;6.502;2023-05-07T10:02:49;25.00;91.80
52555;DHT22;38455;52.710;6.502;2023-05-07T10:05:18;25.30;91.00
52555;DHT22;38455;52.710;6.502;2023-05-07T10:07:45;25.50;92.00
52555;DHT22;38455;52.710;6.502;2023-05-07T10:10:11;25.80;91.10
52555;DHT22;38455;52.710;6.502;2023-05-07T10:12:38;26.00;90.00
52555;DHT22;38455;52.710;6.502;2023-05-07T10:15:09;26.10;89.50
52555;DHT22;38455;52.710;6.502;2023-05-07T10:17:39;26.00;88.80
52555;DHT22;38455;52.710;6.502;2023-05-07T10:20:08;26.20;85.80
52555;DHT22;38455;52.710;6.502;2023-05-07T10:22:46;26.70;87.00
52555;DHT22;38455;52.710;6.502;2023-05-07T10:25:21;25.90;83.30
52555;DHT22;38455;52.710;6.502;2023-05-07T10:27:49;26.20;84.40
52555;DHT22;38455;52.710;6.502;2023-05-07T10:32:45;25.60;86.40
52555;DHT22;38455;52.710;6.502;2023-05-07T10:35:21;26.00;86.40
52555;DHT22;38455;52.710;6.502;2023-05-07T10:37:48;26.00;85.00
52555;DHT22;38455;52.710;6.502;2023-05-07T10:40:14;25.80;86.30
52555;DHT22;38455;52.710;6.502;2023-05-07T10:42:53;25.50;85.70
52555;DHT22;38455;52.710;6.502;2023-05-07T10:45:20;25.30;85.00
52555;DHT22;38455;52.710;6.502;2023-05-07T10:50:34;25.90;84.90
52555;DHT22;38455;52.710;6.502;2023-05-07T10:58:27;26.50;85.40
52555;DHT22;38455;52.710;6.502;2023-05-07T11:00:57;26.30;85.40
52555;DHT22;38455;52.710;6.502;2023-05-07T11:03:24;26.40;85.30
52555;DHT22;38455;52.710;6.502;2023-05-07T11:06:10;26.70;84.30
52555;DHT22;38455;52.710;6.502;2023-05-07T11:11:17;25.90;83.00
52555;DHT22;38455;52.710;6.502;2023-05-07T11:13:47;25.80;85.40
52555;DHT22;38455;52.710;6.502;2023-05-07T11:16:23;25.60;83.50
52555;DHT22;38455;52.710;6.502;2023-05-07T11:18:51;25.60;84.80
52555;DHT22;38455;52.710;6.502;2023-05-07T11:21:36;25.30;84.30
52555;DHT22;38455;52.710;6.502;2023-05-07T11:24:03;25.00;84.30
52555;DHT22;38455;52.710;6.502;2023-05-07T11:26:31;24.80;85.30
52555;DHT22;38455;52.710;6.502;2023-05-07T11:29:11;24.80;85.80
52555;DHT22;38455;52.710;6.502;2023-05-07T11:31:37;24.80;85.00
52555;DHT22;38455;52.710;6.502;2023-05-07T11:34:03;24.80;84.60
52555;DHT22;38455;52.710;6.502;2023-05-07T11:36:32;24.50;85.80
52555;DHT22;38455;52.710;6.502;2023-05-07T11:38:58;24.90;86.30
52555;DHT22;38455;52.710;6.502;2023-05-07T11:41:36;24.80;85.20
52555;DHT22;38455;52.710;6.502;2023-05-07T11:44:04;24.40;87.30
52555;DHT22;38455;52.710;6.502;2023-05-07T11:46:30;25.00;85.70
52555;DHT22;38455;52.710;6.502;2023-05-07T11:48:56;24.60;85.60
52555;DHT22;38455;52.710;6.502;2023-05-07T11:51:25;24.60;85.70
52555;DHT22;38455;52.710;6.502;2023-05-07T11:53:52;24.60;85.40
52555;DHT22;38455;52.710;6.502;2023-05-07T11:56:19;24.80;86.00
52555;DHT22;38455;52.710;6.502;2023-05-07T11:58:46;25.20;85.10
52555;DHT22;38455;52.710;6.502;2023-05-07T12:01:14;25.30;84.70
52555;DHT22;38455;52.710;6.502;2023-05-07T12:03:42;25.40;84.40
52555;DHT22;38455;52.710;6.502;2023-05-07T12:06:09;25.80;83.40
52555;DHT22;38455;52.710;6.502;2023-05-07T12:08:39;25.50;83.70
52555;DHT22;38455;52.710;6.502;2023-05-07T12:11:16;25.20;83.10
52555;DHT22;38455;52.710;6.502;2023-05-07T12:13:47;24.50;84.50
52555;DHT22;38455;52.710;6.502;2023-05-07T12:16:13;24.00;86.50
52555;DHT22;38455;52.710;6.502;2023-05-07T12:18:39;23.80;88.20
52555;DHT22;38455;52.710;6.502;2023-05-07T12:21:06;23.30;89.50
52555;DHT22;38455;52.710;6.502;2023-05-07T12:23:33;23.10;90.30
52555;DHT22;38455;52.710;6.502;2023-05-07T12:25:59;22.90;90.90
52555;DHT22;38455;52.710;6.502;2023-05-07T12:28:25;22.90;91.20
52555;DHT22;38455;52.710;6.502;2023-05-07T12:30:51;22.70;91.50
52555;DHT22;38455;52.710;6.502;2023-05-07T12:33:18;22.60;92.00
52555;DHT22;38455;52.710;6.502;2023-05-07T12:35:47;22.40;92.60
52555;DHT22;38455;52.710;6.502;2023-05-07T12:38:15;22.40;93.70
52555;DHT22;38455;52.710;6.502;2023-05-07T12:40:46;22.50;93.50
52555;DHT22;38455;52.710;6.502;2023-05-07T12:45:47;22.60;94.00
52555;DHT22;38455;52.710;6.502;2023-05-07T12:48:13;22.70;93.70
52555;DHT22;38455;52.710;6.502;2023-05-07T12:50:39;22.70;94.00
52555;DHT22;38455;52.710;6.502;2023-05-07T12:53:06;22.80;94.00
52555;DHT22;38455;52.710;6.502;2023-05-07T12:55:41;23.00;93.60
52555;DHT22;38455;52.710;6.502;2023-05-07T12:58:07;23.10;94.00
52555;DHT22;38455;52.710;6.502;2023-05-07T13:00:38;23.10;93.70
52555;DHT22;38455;52.710;6.502;2023-05-07T13:03:04;22.80;93.60
52555;DHT22;38455;52.710;6.502;2023-05-07T13:05:31;22.60;94.00
52555;DHT22;38455;52.710;6.502;2023-05-07T13:07:57;22.30;93.90
52555;DHT22;38455;52.710;6.502;2023-05-07T13:10:23;22.40;94.40
52555;DHT22;38455;52.710;6.502;2023-05-07T13:12:50;22.30;94.40
52555;DHT22;38455;52.710;6.502;2023-05-07T13:15:16;21.90;95.00
52555;DHT22;38455;52.710;6.502;2023-05-07T13:17:41;22.00;95.40
52555;DHT22;38455;52.710;6.502;2023-05-07T13:20:09;21.80;96.00
52555;DHT22;38455;52.710;6.502;2023-05-07T13:22:35;21.70;96.40
52555;DHT22;38455;52.710;6.502;2023-05-07T13:25:01;21.70;97.00
52555;DHT22;38455;52.710;6.502;2023-05-07T13:27:27;21.70;98.40
52555;DHT22;38455;52.710;6.502;2023-05-07T13:29:52;21.60;99.80
52555;DHT22;38455;52.710;6.502;2023-05-07T13:32:18;21.40;99.70
52555;DHT22;38455;52.710;6.502;2023-05-07T13:34:44;21.40;99.90
52555;DHT22;38455;52.710;6.502;2023-05-07T13:37:09;21.30;99.90
52555;DHT22;38455;52.710;6.502;2023-05-07T13:39:36;21.10;99.90
52555;DHT22;38455;52.710;6.502;2023-05-07T13:42:02;21.10;99.90
52555;DHT22;38455;52.710;6.502;2023-05-07T13:44:27;21.10;99.90
52555;DHT22;38455;52.710;6.502;2023-05-07T13:46:53;21.30;99.90
52555;DHT22;38455;52.710;6.502;2023-05-07T13:49:19;21.10;99.90
52555;DHT22;38455;52.710;6.502;2023-05-07T13:51:44;20.90;99.90
52555;DHT22;38455;52.710;6.502;2023-05-07T13:54:10;20.90;99.90
52555;DHT22;38455;52.710;6.502;2023-05-07T13:56:36;20.80;99.90
52555;DHT22;38455;52.710;6.502;2023-05-07T13:59:02;20.80;99.90
52555;DHT22;38455;52.710;6.502;2023-05-07T14:01:28;20.90;99.90
52555;DHT22;38455;52.710;6.502;2023-05-07T14:03:53;20.90;99.90
52555;DHT22;38455;52.710;6.502;2023-05-07T14:06:19;20.80;99.90
52555;DHT22;38455;52.710;6.502;2023-05-07T14:08:45;20.70;99.90
52555;DHT22;38455;52.710;6.502;2023-05-07T14:11:10;20.60;99.90
52555;DHT22;38455;52.710;6.502;2023-05-07T14:13:36;20.70;99.90
52555;DHT22;38455;52.710;6.502;2023-05-07T14:16:03;20.80;99.90
52555;DHT22;38455;52.710;6.502;2023-05-07T14:18:29;20.90;99.90
52555;DHT22;38455;52.710;6.502;2023-05-07T14:20:55;20.70;99.90
52555;DHT22;38455;52.710;6.502;2023-05-07T14:23:20;20.70;99.90
52555;DHT22;38455;52.710;6.502;2023-05-07T14:25:54;20.60;99.90
52555;DHT22;38455;52.710;6.502;2023-05-07T14:28:21;20.60;99.90
52555;DHT22;38455;52.710;6.502;2023-05-07T14:30:48;20.60;99.90
52555;DHT22;38455;52.710;6.502;2023-05-07T14:33:13;20.60;99.90
52555;DHT22;38455;52.710;6.502;2023-05-07T14:35:39;20.70;99.90
52555;DHT22;38455;52.710;6.502;2023-05-07T14:38:04;20.70;99.90
52555;DHT22;38455;52.710;6.502;2023-05-07T14:40:30;20.60;99.90
52555;DHT22;38455;52.710;6.502;2023-05-07T14:42:56;20.50;99.90
52555;DHT22;38455;52.710;6.502;2023-05-07T14:45:22;20.40;99.90
52555;DHT22;38455;52.710;6.502;2023-05-07T14:47:48;20.30;99.90
52555;DHT22;38455;52.710;6.502;2023-05-07T14:50:14;20.40;99.90
52555;DHT22;38455;52.710;6.502;2023-05-07T14:52:39;20.60;99.90
52555;DHT22;38455;52.710;6.502;2023-05-07T14:55:05;20.30;99.90
52555;DHT22;38455;52.710;6.502;2023-05-07T14:57:31;20.50;99.90
52555;DHT22;38455;52.710;6.502;2023-05-07T15:00:01;20.50;99.90
52555;DHT22;38455;52.710;6.502;2023-05-07T15:02:27;20.50;99.90
52555;DHT22;38455;52.710;6.502;2023-05-07T15:04:52;20.30;99.90
52555;DHT22;38455;52.710;6.502;2023-05-07T15:07:18;20.20;99.90
52555;DHT22;38455;52.710;6.502;2023-05-07T15:09:44;20.20;99.90
52555;DHT22;38455;52.710;6.502;2023-05-07T15:12:10;20.10;99.90
52555;DHT22;38455;52.710;6.502;2023-05-07T15:14:37;20.10;99.90
52555;DHT22;38455;52.710;6.502;2023-05-07T15:17:03;20.10;99.90
52555;DHT22;38455;52.710;6.502;2023-05-07T15:19:29;20.00;99.90
52555;DHT22;38455;52.710;6.502;2023-05-07T15:21:57;19.90;99.90
52555;DHT22;38455;52.710;6.502;2023-05-07T15:24:23;19.80;99.90
52555;DHT22;38455;52.710;6.502;2023-05-07T15:26:51;19.80;99.90
52555;DHT22;38455;52.710;6.502;2023-05-07T15:29:17;19.80;99.90
52555;DHT22;38455;52.710;6.502;2023-05-07T15:31:42;19.80;99.90
52555;DHT22;38455;52.710;6.502;2023-05-07T15:34:08;19.80;99.90
52555;DHT22;38455;52.710;6.502;2023-05-07T15:36:34;19.80;99.90
52555;DHT22;38455;52.710;6.502;2023-05-07T15:39:00;19.70;99.90
52555;DHT22;38455;52.710;6.502;2023-05-07T15:41:28;19.60;99.90